Blue Hill Meteorological Observatory 2

42° 12' 44"N, 71° 06' 53"W, Elevation 635 ft.
Eastern Time

Hourly observations for the last 72 hours

Date Time Temperature (°F) Humi-
dity

(%)
Wind
(mph)
Pressure Rain (in) Sun
(W/m2)
ET
(in)
Air Dew 6 Hour 1 Hr 3 Hr 6 Hr Day
Alt
(in)
Sea
Level

(mb)
Max Min
3 00:00 49.3 39.9 70 E 21 G 34 30.25 1024.5 0.00 0 0.110
2 23:00 49.7 41.4 73 ENE 18 G 29 30.26 1024.7 0.00 0 0.107
2 22:00 49.6 41.3 73 ENE 19 G 26 30.25 1024.6 0.00 0 0.104
2 21:00 50.1 40.0 68 E 16 G 32 30.25 1024.5 0.00 0 0.100
2 20:00 49.9 38.2 64 ENE 22 G 36 30.24 1024.2 0.00 0 0.096
2 19:00 49.1 38.6 52.3 48.0 67 ENE 15 G 26 30.26 1024.8 0.00 0 0.092
2 18:00 48.3 38.2 68 ENE 15 G 32 30.24 1024.2 0.00 0 0.088
2 17:00 48.2 38.1 68 ENE 18 G 30 30.25 1024.3 0.00 12 0.084
2 16:00 48.9 40.3 72 ENE 19 G 29 30.23 1023.8 0.00 84 0.078
2 15:00 49.8 41.5 73 ENE 20 G 30 30.22 1023.2 0.00 241 0.069
2 14:00 51.2 42.1 71 NE 17 G 35 30.22 1023.2 0.00 408 0.058
2 13:00 50.9 40.3 52.6 50.5 67 ENE 24 G 33 30.20 1022.9 0.00 383 0.047
2 12:00 51.5 40.5 66 NE 15 G 36 30.21 1023.2 0.00 341 0.037
2 11:00 51.0 43.0 74 ENE 17 G 38 30.20 1022.9 0.00 320 0.030
2 10:00 50.6 43.7 77 NE 17 G 35 30.21 1022.9 0.00 160 0.024
2 09:00 51.4 44.8 78 ENE 23 G 37 30.18 1021.9 0.00 86 0.018
2 08:00 51.9 43.9 74 ENE 24 G 40 30.17 1021.7 0.00 113 0.013
2 07:00 52.6 47.6 55.2 52.6 83 ENE 23 G 38 30.14 1020.7 0.00 23 0.010
2 06:00 53.4 48.7 84 ENE 24 G 48 30.12 1020.0 0.00 9 0.007
2 05:00 53.9 49.8 86 ENE 20 G 41 30.10 1019.5 0.00 0 0.005
2 04:00 54.5 51.9 91 ENE 21 G 36 30.09 1018.9 0.00 0 0.004
2 03:00 54.9 52.6 92 ENE 12 G 23 30.10 1019.3 0.00 0 0.003
2 02:00 55.0 51.5 88 ENE 12 G 22 30.08 1018.6 0.00 0 0.002
2 01:00 54.5 49.1 54.5 53.3 82 ENE 14 G 26 30.06 1018.0 0.00 0 0.000
2 00:00 53.9 48.9 83 NE 14 G 20 30.07 1018.2 0.01 0 0.039
1 23:00 53.9 49.2 84 NE 12 G 18 30.06 1017.9 0.01 0 0.038
1 22:00 53.8 49.7 86 NE 15 G 20 30.06 1018.0 0.01 0 0.037
1 21:00 54.1 50.6 88 NE 13 G 19 30.07 1018.3 0.01 0 0.036
1 20:00 53.7 49.9 87 ENE 10 G 20 30.08 1018.7 0.01 0 0.035
1 19:00 53.4 49.3 55.7 53.3 86 NE 12 G 19 30.08 1018.6 0.01 0 0.034
1 18:00 53.3 48.9 85 ENE 11 G 17 30.09 1019.0 0.01 0 0.033
1 17:00 53.7 48.7 83 ENE 10 G 16 30.09 1019.0 0.01 30 0.031
1 16:00 54.6 46.8 75 NE 14 G 20 30.08 1018.8 0.01 35 0.027
1 15:00 54.4 49.3 83 NE 14 G 21 30.08 1018.8 0.01 118 0.024
1 14:00 55.7 52.2 88 NE 13 G 24 30.09 1018.9 0.01 149 0.020
1 13:00 55.2 51.7 55.2 49.3 88 ENE 11 G 18 30.11 1019.7 0.01 0.01 125 0.016
1 12:00 52.8 50.8 93 E 15 G 23 30.11 1019.8 0.01 174 0.014
1 11:00 51.6 49.4 92 E 12 G 16 30.13 1020.5 0.01 81 0.012
1 10:00 50.9 48.9 93 ENE 9 G 12 30.16 1021.4 0.01 0.01 192 0.010
1 09:00 50.2 47.4 90 NE 12 G 14 30.17 1021.8 0.01 0.01 81 0.008
1 08:00 49.9 46.8 89 N 8 G 10 30.19 1022.4 0.00 39 0.007
1 07:00 50.4 46.4 50.4 48.6 86 NE 8 G 11 30.17 1021.7 0.00 32 0.006
1 06:00 49.0 45.6 88 NE 11 G 13 30.15 1021.1 0.00 7 0.005
1 05:00 49.3 45.3 86 NNE 7 G 9 30.16 1021.4 0.00 0 0.004
1 04:00 49.0 45.9 89 NNE 8 G 9 30.16 1021.3 0.00 0 0.003
1 03:00 49.3 44.7 84 ENE 6 G 10 30.16 1021.2 0.00 0 0.002
1 02:00 50.4 43.1 76 E 7 G 8 30.16 1021.5 0.00 0 0.001
1 01:00 49.6 45.0 51.2 49.6 84 NNE 4 G 6 30.18 1022.0 0.00 0 0.000
1 00:00 49.7 44.8 83 E 4 G 4 30.19 1022.4 0.00 0 0.100
30 23:00 51.1 44.8 79 SE 2 G 3 30.21 1023.0 0.00 0 0.099
30 22:00 50.7 45.1 81 SSE 4 G 5 30.21 1023.2 0.00 0 0.098
30 21:00 50.4 45.8 84 SSE 6 G 8 30.23 1023.7 0.00 0 0.097
30 20:00 49.6 45.6 86 SE 7 G 8 30.24 1023.9 0.00 0 0.096
30 19:00 50.0 46.0 59.4 49.9 86 SE 9 G 10 30.24 1024.1 0.00 0 0.095
30 18:00 50.7 45.4 82 ESE 9 G 10 30.24 1024.1 0.00 0 0.094
30 17:00 53.4 46.7 78 E 7 G 10 30.25 1024.4 0.00 23 0.092
30 16:00 56.3 49.2 77 E 5 G 7 30.27 1025.1 0.00 107 0.088
30 15:00 57.0 49.2 75 E 4 G 9 30.28 1025.6 0.00 244 0.081
30 14:00 57.7 49.1 73 ENE 6 G 12 30.28 1025.5 0.00 269 0.071
30 13:00 58.9 49.5 60.2 46.4 71 ENE 6 G 15 30.30 1026.2 0.00 520 0.058
30 12:00 58.8 49.4 71 ENE 7 G 12 30.33 1027.3 0.00 503 0.046
30 11:00 58.1 49.9 74 E 8 G 16 30.35 1027.8 0.00 383 0.033
30 10:00 58.1 50.6 76 ENE 8 G 15 30.37 1028.5 0.00 649 0.021
30 09:00 55.8 49.4 79 NE 8 G 15 30.38 1028.7 0.00 434 0.012
30 08:00 50.0 46.0 86 NE 9 G 14 30.37 1028.5 0.00 220 0.008
30 07:00 46.5 43.7 46.5 44.5 90 NE 13 G 15 30.37 1028.5 0.00 109 0.006
30 06:00 45.3 43.1 92 NE 13 G 16 30.36 1028.2 0.00 18 0.005
30 05:00 44.6 42.4 92 NNE 12 G 15 30.35 1027.9 0.00 0 0.004
30 04:00 46.3 43.5 90 NE 13 G 15 30.35 1027.8 0.00 0 0.003
30 03:00 46.0 43.5 91 NE 12 G 15 30.34 1027.5 0.00 0 0.002
30 02:00 45.9 42.5 88 NNE 11 G 13 30.35 1027.7 0.00 0 0.001
30 01:00 45.9 42.0 52.5 45.8 86 NNE 11 G 13 30.36 1028.0 0.00 0 0.000

Data generated by WxSolution Version 1.9.1.8, Build 2020.02.16.